Terminal Aerodrome Forecast
Issued by NWS

Home | Current Version | Previous Version | Text Only | Print | Product List | Glossary On
Versions: 1 2 3 4 5 6 7 8 9 10 11 12 13 14 15 16
699
FTUS44 KLIX 281126
TAFGPT
TAF
KGPT 281126Z 2812/0112 15009KT 2SM BR OVC002
     FM281400 15009KT 4SM BR BKN008
     FM281600 16011KT P6SM BKN015
     FM282000 16011G19KT P6SM SCT045
     FM010200 18009KT P6SM OVC008=

USA.gov is the U.S. government's official web portal to all federal, state and local government web resources and services.